WXM80 ListenWXM80 Stop

You find our weather info also at:

UK Metoffice

WeatherCloud

Weather Underground

Northeastern Weather Network

AWEKAS

Citizen Weather Observer Program (CWOP)

HAMweather, WeatherForYou, PWS Weather


Weather Underground History page Text

Daily Summary for April 9, 2017 Units:  Both    English   Metric
« Previous Day
Next Day »
Daily Weekly Monthly Yearly Custom
  High: Low: Average:
Temperature: 68.1 °F /  20.1 °C 35.6 °F /  2 °C 51.2 °F /  10.7 °C
Dew Point: 37.0 °F /  2.8 °C 25.4 °F /  -3.7 °C 31.2 °F /  -0.4 °C
Humidity: 75 % 22 % 50 %
Wind Speed: 8.7 mph /  14 km/h - 3.4 mph /  5.5 km/h
Wind Gust: 18.4 mph /  29.6 km/h - -
Wind:- - WSW
Pressure: 30.14 in /  1020.5 hPa 29.99 in /  1015.5 hPa -
Precipitation: 0.00 in /  0 mm    
Historical Graphs
 
 
Tabular Data for April 9, 2017
Time Temperature Dew Point Pressure Wind Wind Speed Wind Gust Humidity Rainfall Rate (Hourly)
00:02 44.8 °F /  7.1 °C 31.8 °F /  -0.1 °C 29.99 in /  1015.5 hPa NW 0.9 mph /  1.4 km/h 3.5 mph /  5.6 km/h 60 % 0.00 in /  0 mm
00:07 44.7 °F /  7.1 °C 31.7 °F /  -0.2 °C 29.99 in /  1015.5 hPa NW 0.5 mph /  0.8 km/h 1.2 mph /  1.9 km/h 60 % 0.00 in /  0 mm
00:12 44.5 °F /  6.9 °C 31.5 °F /  -0.3 °C 29.99 in /  1015.5 hPa NW 0.8 mph /  1.3 km/h 2.3 mph /  3.7 km/h 60 % 0.00 in /  0 mm
00:17 44.4 °F /  6.9 °C 31.8 °F /  -0.1 °C 29.99 in /  1015.5 hPa NW 1.0 mph /  1.6 km/h 2.3 mph /  3.7 km/h 61 % 0.00 in /  0 mm
00:22 44.2 °F /  6.8 °C 31.2 °F /  -0.4 °C 29.99 in /  1015.5 hPa Calm     60 % 0.00 in /  0 mm
00:27 44.1 °F /  6.7 °C 31.5 °F /  -0.3 °C 29.99 in /  1015.5 hPa Calm     61 % 0.00 in /  0 mm
00:32 43.8 °F /  6.6 °C 31.6 °F /  -0.2 °C 30.00 in /  1015.8 hPa Calm     62 % 0.00 in /  0 mm
00:37 43.5 °F /  6.4 °C 31.7 °F /  -0.2 °C 30.00 in /  1015.8 hPa NW 0.6 mph /  1 km/h 2.3 mph /  3.7 km/h 63 % 0.00 in /  0 mm
00:43 43.4 °F /  6.3 °C 32.0 °F /  0 °C 30.00 in /  1015.8 hPa NW 1.3 mph /  2.1 km/h 2.3 mph /  3.7 km/h 64 % 0.00 in /  0 mm
00:48 43.1 °F /  6.2 °C 31.4 °F /  -0.3 °C 30.00 in /  1015.8 hPa NW 1.4 mph /  2.3 km/h 2.3 mph /  3.7 km/h 63 % 0.00 in /  0 mm
00:53 42.9 °F /  6.1 °C 31.2 °F /  -0.4 °C 30.00 in /  1015.8 hPa NW 0.5 mph /  0.8 km/h 2.3 mph /  3.7 km/h 63 % 0.00 in /  0 mm
00:58 42.4 °F /  5.8 °C 31.5 °F /  -0.3 °C 30.00 in /  1015.8 hPa NW 1.1 mph /  1.8 km/h 2.3 mph /  3.7 km/h 65 % 0.00 in /  0 mm
01:03 42.0 °F /  5.6 °C 31.5 °F /  -0.3 °C 30.00 in /  1015.8 hPa NW 1.9 mph /  3.1 km/h 3.5 mph /  5.6 km/h 66 % 0.00 in /  0 mm
01:08 41.8 °F /  5.4 °C 31.6 °F /  -0.2 °C 30.00 in /  1015.8 hPa NW 1.3 mph /  2.1 km/h 2.3 mph /  3.7 km/h 67 % 0.00 in /  0 mm
01:13 41.7 °F /  5.4 °C 31.5 °F /  -0.3 °C 30.00 in /  1015.8 hPa NW 1.9 mph /  3.1 km/h 3.5 mph /  5.6 km/h 67 % 0.00 in /  0 mm
01:18 41.6 °F /  5.3 °C 31.4 °F /  -0.3 °C 30.00 in /  1015.8 hPa NW 2.0 mph /  3.2 km/h 3.5 mph /  5.6 km/h 67 % 0.00 in /  0 mm
01:23 41.4 °F /  5.2 °C 31.3 °F /  -0.4 °C 30.00 in /  1015.8 hPa NW 0.9 mph /  1.4 km/h 2.3 mph /  3.7 km/h 67 % 0.00 in /  0 mm
01:28 41.2 °F /  5.1 °C 31.4 °F /  -0.3 °C 30.00 in /  1015.8 hPa NW 0.6 mph /  1 km/h 2.0 mph /  3.2 km/h 68 % 0.00 in /  0 mm
01:33 41.0 °F /  5 °C 30.9 °F /  -0.6 °C 30.01 in /  1016.1 hPa Calm     67 % 0.00 in /  0 mm
01:38 40.9 °F /  4.9 °C 30.8 °F /  -0.7 °C 30.00 in /  1015.8 hPa NW 0.2 mph /  0.3 km/h 1.2 mph /  1.9 km/h 67 % 0.00 in /  0 mm
01:43 40.7 °F /  4.8 °C 30.6 °F /  -0.8 °C 30.01 in /  1016.1 hPa Calm   1.2 mph /  1.9 km/h 67 % 0.00 in /  0 mm
01:48 40.5 °F /  4.7 °C 30.8 °F /  -0.7 °C 30.01 in /  1016.1 hPa NW 0.3 mph /  0.5 km/h 1.2 mph /  1.9 km/h 68 % 0.00 in /  0 mm
01:53 40.4 °F /  4.7 °C 30.7 °F /  -0.7 °C 30.01 in /  1016.1 hPa NW 0.5 mph /  0.8 km/h 1.2 mph /  1.9 km/h 68 % 0.00 in /  0 mm
01:58 40.2 °F /  4.6 °C 30.5 °F /  -0.8 °C 30.01 in /  1016.1 hPa NW 0.1 mph /  0.2 km/h 1.2 mph /  1.9 km/h 68 % 0.00 in /  0 mm
02:03 40.1 °F /  4.5 °C 30.4 °F /  -0.9 °C 30.01 in /  1016.1 hPa NW 0.1 mph /  0.2 km/h 1.0 mph /  1.6 km/h 68 % 0.00 in /  0 mm
02:08 39.9 °F /  4.4 °C 30.2 °F /  -1 °C 30.01 in /  1016.1 hPa NW 0.3 mph /  0.5 km/h 1.2 mph /  1.9 km/h 68 % 0.00 in /  0 mm
02:13 39.7 °F /  4.3 °C 30.4 °F /  -0.9 °C 30.01 in /  1016.1 hPa Calm     69 % 0.00 in /  0 mm
02:18 39.6 °F /  4.2 °C 30.3 °F /  -0.9 °C 30.01 in /  1016.1 hPa Calm     69 % 0.00 in /  0 mm
02:23 39.3 °F /  4.1 °C 30.0 °F /  -1.1 °C 30.01 in /  1016.1 hPa Calm     69 % 0.00 in /  0 mm
02:28 39.1 °F /  3.9 °C 29.8 °F /  -1.2 °C 30.01 in /  1016.1 hPa Calm   1.2 mph /  1.9 km/h 69 % 0.00 in /  0 mm
02:33 38.8 °F /  3.8 °C 29.8 °F /  -1.2 °C 30.01 in /  1016.1 hPa Calm     70 % 0.00 in /  0 mm
02:38 38.5 °F /  3.6 °C 29.6 °F /  -1.3 °C 30.01 in /  1016.1 hPa Calm     70 % 0.00 in /  0 mm
02:43 38.2 °F /  3.4 °C 29.3 °F /  -1.5 °C 30.01 in /  1016.1 hPa NW 0.8 mph /  1.3 km/h 2.3 mph /  3.7 km/h 70 % 0.00 in /  0 mm
02:48 37.9 °F /  3.3 °C 29.3 °F /  -1.5 °C 30.01 in /  1016.1 hPa Calm   1.2 mph /  1.9 km/h 71 % 0.00 in /  0 mm
02:53 37.7 °F /  3.2 °C 29.1 °F /  -1.6 °C 30.01 in /  1016.1 hPa NW 1.0 mph /  1.6 km/h 2.3 mph /  3.7 km/h 71 % 0.00 in /  0 mm
02:58 37.5 °F /  3.1 °C 28.9 °F /  -1.7 °C 30.02 in /  1016.5 hPa NW 1.4 mph /  2.3 km/h 3.5 mph /  5.6 km/h 71 % 0.00 in /  0 mm
03:03 37.3 °F /  2.9 °C 29.1 °F /  -1.6 °C 30.02 in /  1016.5 hPa NW 1.1 mph /  1.8 km/h 2.3 mph /  3.7 km/h 72 % 0.00 in /  0 mm
03:08 37.1 °F /  2.8 °C 28.9 °F /  -1.7 °C 30.03 in /  1016.8 hPa NW 1.3 mph /  2.1 km/h 3.0 mph /  4.8 km/h 72 % 0.00 in /  0 mm
03:13 37.0 °F /  2.8 °C 29.1 °F /  -1.6 °C 30.02 in /  1016.5 hPa NW 1.2 mph /  1.9 km/h 3.5 mph /  5.6 km/h 73 % 0.00 in /  0 mm
03:18 36.9 °F /  2.7 °C 29.1 °F /  -1.6 °C 30.02 in /  1016.5 hPa NW 0.7 mph /  1.1 km/h 2.3 mph /  3.7 km/h 73 % 0.00 in /  0 mm
03:23 36.7 °F /  2.6 °C 28.9 °F /  -1.7 °C 30.02 in /  1016.5 hPa NW 1.8 mph /  2.9 km/h 2.3 mph /  3.7 km/h 73 % 0.00 in /  0 mm
03:28 36.5 °F /  2.5 °C 29.0 °F /  -1.7 °C 30.02 in /  1016.5 hPa NW 1.9 mph /  3.1 km/h 3.5 mph /  5.6 km/h 74 % 0.00 in /  0 mm
03:38 36.3 °F /  2.4 °C 28.8 °F /  -1.8 °C 30.03 in /  1016.8 hPa NW 1.0 mph /  1.6 km/h 2.3 mph /  3.7 km/h 74 % 0.00 in /  0 mm
03:43 36.1 °F /  2.3 °C 28.6 °F /  -1.9 °C 30.03 in /  1016.8 hPa NW 0.6 mph /  1 km/h 2.3 mph /  3.7 km/h 74 % 0.00 in /  0 mm
03:48 36.0 °F /  2.2 °C 28.8 °F /  -1.8 °C 30.03 in /  1016.8 hPa NW 0.1 mph /  0.2 km/h 1.2 mph /  1.9 km/h 75 % 0.00 in /  0 mm
03:49 36.0 °F /  2.2 °C 28.8 °F /  -1.8 °C 30.03 in /  1016.8 hPa Calm   1.2 mph /  1.9 km/h 75 % 0.00 in /  0 mm
03:54 35.9 °F /  2.2 °C 28.4 °F /  -2 °C 30.03 in /  1016.8 hPa NW 0.1 mph /  0.2 km/h 1.2 mph /  1.9 km/h 74 % 0.00 in /  0 mm
03:59 35.9 °F /  2.2 °C 28.4 °F /  -2 °C 30.03 in /  1016.8 hPa NW 0.4 mph /  0.6 km/h 1.2 mph /  1.9 km/h 74 % 0.00 in /  0 mm
04:09 35.8 °F /  2.1 °C 28.3 °F /  -2.1 °C 30.04 in /  1017.2 hPa NW 0.1 mph /  0.2 km/h 1.2 mph /  1.9 km/h 74 % 0.00 in /  0 mm
04:15 35.7 °F /  2.1 °C 28.2 °F /  -2.1 °C 30.04 in /  1017.2 hPa NW 0.7 mph /  1.1 km/h 2.3 mph /  3.7 km/h 74 % 0.00 in /  0 mm
04:20 35.7 °F /  2.1 °C 28.2 °F /  -2.1 °C 30.04 in /  1017.2 hPa NW 0.2 mph /  0.3 km/h 1.2 mph /  1.9 km/h 74 % 0.00 in /  0 mm
04:25 35.6 °F /  2 °C 27.8 °F /  -2.3 °C 30.04 in /  1017.2 hPa NW 0.2 mph /  0.3 km/h 1.2 mph /  1.9 km/h 73 % 0.00 in /  0 mm
04:30 35.7 °F /  2.1 °C 27.6 °F /  -2.4 °C 30.04 in /  1017.2 hPa Calm   1.2 mph /  1.9 km/h 72 % 0.00 in /  0 mm
04:35 35.7 °F /  2.1 °C 27.6 °F /  -2.4 °C 30.04 in /  1017.2 hPa NW 0.5 mph /  0.8 km/h 2.3 mph /  3.7 km/h 72 % 0.00 in /  0 mm
04:40 35.8 °F /  2.1 °C 27.7 °F /  -2.4 °C 30.05 in /  1017.5 hPa NW 1.1 mph /  1.8 km/h 2.0 mph /  3.2 km/h 72 % 0.00 in /  0 mm
04:45 35.8 °F /  2.1 °C 27.7 °F /  -2.4 °C 30.04 in /  1017.2 hPa NW 1.0 mph /  1.6 km/h 2.3 mph /  3.7 km/h 72 % 0.00 in /  0 mm
04:50 35.8 °F /  2.1 °C 27.7 °F /  -2.4 °C 30.04 in /  1017.2 hPa NW 0.1 mph /  0.2 km/h 1.2 mph /  1.9 km/h 72 % 0.00 in /  0 mm
04:55 35.8 °F /  2.1 °C 27.7 °F /  -2.4 °C 30.04 in /  1017.2 hPa NW 1.3 mph /  2.1 km/h 2.3 mph /  3.7 km/h 72 % 0.00 in /  0 mm
05:00 35.8 °F /  2.1 °C 27.7 °F /  -2.4 °C 30.04 in /  1017.2 hPa NW 0.5 mph /  0.8 km/h 1.2 mph /  1.9 km/h 72 % 0.00 in /  0 mm
05:05 35.8 °F /  2.1 °C 27.3 °F /  -2.6 °C 30.05 in /  1017.5 hPa NW 2.4 mph /  3.9 km/h 3.5 mph /  5.6 km/h 71 % 0.00 in /  0 mm
05:10 35.9 °F /  2.2 °C 27.1 °F /  -2.7 °C 30.05 in /  1017.5 hPa WSW 1.8 mph /  2.9 km/h 3.5 mph /  5.6 km/h 70 % 0.00 in /  0 mm
05:25 36.4 °F /  2.4 °C 27.2 °F /  -2.7 °C 30.05 in /  1017.5 hPa WSW 0.3 mph /  0.5 km/h 1.2 mph /  1.9 km/h 69 % 0.00 in /  0 mm
05:30 36.6 °F /  2.6 °C 27.0 °F /  -2.8 °C 30.05 in /  1017.5 hPa WSW 1.2 mph /  1.9 km/h 2.3 mph /  3.7 km/h 68 % 0.00 in /  0 mm
05:35 36.7 °F /  2.6 °C 27.1 °F /  -2.7 °C 30.05 in /  1017.5 hPa WSW 0.3 mph /  0.5 km/h 1.2 mph /  1.9 km/h 68 % 0.00 in /  0 mm
05:40 36.8 °F /  2.7 °C 27.2 °F /  -2.7 °C 30.06 in /  1017.8 hPa WSW 1.2 mph /  1.9 km/h 2.3 mph /  3.7 km/h 68 % 0.00 in /  0 mm
05:45 36.9 °F /  2.7 °C 27.0 °F /  -2.8 °C 30.06 in /  1017.8 hPa WSW 1.2 mph /  1.9 km/h 3.0 mph /  4.8 km/h 67 % 0.00 in /  0 mm
05:50 36.9 °F /  2.7 °C 27.3 °F /  -2.6 °C 30.06 in /  1017.8 hPa WSW 1.1 mph /  1.8 km/h 3.5 mph /  5.6 km/h 68 % 0.00 in /  0 mm
05:55 36.9 °F /  2.7 °C 27.3 °F /  -2.6 °C 30.07 in /  1018.2 hPa WSW 1.3 mph /  2.1 km/h 2.3 mph /  3.7 km/h 68 % 0.00 in /  0 mm
06:00 36.8 °F /  2.7 °C 27.2 °F /  -2.7 °C 30.07 in /  1018.2 hPa WSW 1.8 mph /  2.9 km/h 3.5 mph /  5.6 km/h 68 % 0.00 in /  0 mm
06:05 36.8 °F /  2.7 °C 27.2 °F /  -2.7 °C 30.07 in /  1018.2 hPa WSW 0.4 mph /  0.6 km/h 2.3 mph /  3.7 km/h 68 % 0.00 in /  0 mm
06:11 36.7 °F /  2.6 °C 27.1 °F /  -2.7 °C 30.07 in /  1018.2 hPa WSW 0.4 mph /  0.6 km/h 2.3 mph /  3.7 km/h 68 % 0.00 in /  0 mm
06:16 36.7 °F /  2.6 °C 27.1 °F /  -2.7 °C 30.07 in /  1018.2 hPa WSW 0.3 mph /  0.5 km/h 1.2 mph /  1.9 km/h 68 % 0.00 in /  0 mm
06:21 36.7 °F /  2.6 °C 27.1 °F /  -2.7 °C 30.07 in /  1018.2 hPa WSW 1.9 mph /  3.1 km/h 3.5 mph /  5.6 km/h 68 % 0.00 in /  0 mm
06:31 36.7 °F /  2.6 °C 27.1 °F /  -2.7 °C 30.08 in /  1018.5 hPa WSW 1.7 mph /  2.7 km/h 2.3 mph /  3.7 km/h 68 % 0.00 in /  0 mm
06:36 36.7 °F /  2.6 °C 27.1 °F /  -2.7 °C 30.08 in /  1018.5 hPa WSW 1.2 mph /  1.9 km/h 3.5 mph /  5.6 km/h 68 % 0.00 in /  0 mm
06:41 36.8 °F /  2.7 °C 26.9 °F /  -2.8 °C 30.09 in /  1018.8 hPa WSW 1.7 mph /  2.7 km/h 3.5 mph /  5.6 km/h 67 % 0.00 in /  0 mm
06:46 37.0 °F /  2.8 °C 27.1 °F /  -2.7 °C 30.09 in /  1018.8 hPa WSW 2.0 mph /  3.2 km/h 2.3 mph /  3.7 km/h 67 % 0.00 in /  0 mm
06:51 37.2 °F /  2.9 °C 27.2 °F /  -2.7 °C 30.09 in /  1018.8 hPa WSW 2.0 mph /  3.2 km/h 3.5 mph /  5.6 km/h 67 % 0.00 in /  0 mm
06:56 37.5 °F /  3.1 °C 27.2 °F /  -2.7 °C 30.10 in /  1019.2 hPa WSW 1.7 mph /  2.7 km/h 3.5 mph /  5.6 km/h 66 % 0.00 in /  0 mm
07:01 37.9 °F /  3.3 °C 27.5 °F /  -2.5 °C 30.10 in /  1019.2 hPa WSW 1.0 mph /  1.6 km/h 3.5 mph /  5.6 km/h 66 % 0.00 in /  0 mm
07:06 38.2 °F /  3.4 °C 27.8 °F /  -2.3 °C 30.10 in /  1019.2 hPa WSW 0.8 mph /  1.3 km/h 2.3 mph /  3.7 km/h 66 % 0.00 in /  0 mm
07:11 38.6 °F /  3.7 °C 28.2 °F /  -2.1 °C 30.10 in /  1019.2 hPa WSW 3.2 mph /  5.1 km/h 5.0 mph /  8 km/h 66 % 0.00 in /  0 mm
07:16 39.0 °F /  3.9 °C 28.2 °F /  -2.1 °C 30.10 in /  1019.2 hPa WSW 4.1 mph /  6.6 km/h 5.8 mph /  9.3 km/h 65 % 0.00 in /  0 mm
07:21 39.3 °F /  4.1 °C 28.5 °F /  -1.9 °C 30.10 in /  1019.2 hPa WSW 2.6 mph /  4.2 km/h 3.5 mph /  5.6 km/h 65 % 0.00 in /  0 mm
07:31 40.1 °F /  4.5 °C 28.9 °F /  -1.7 °C 30.10 in /  1019.2 hPa SW 2.1 mph /  3.4 km/h 3.5 mph /  5.6 km/h 64 % 0.00 in /  0 mm
07:36 40.4 °F /  4.7 °C 28.8 °F /  -1.8 °C 30.10 in /  1019.2 hPa SW 1.6 mph /  2.6 km/h 3.5 mph /  5.6 km/h 63 % 0.00 in /  0 mm
07:41 40.8 °F /  4.9 °C 29.2 °F /  -1.6 °C 30.10 in /  1019.2 hPa SW 3.0 mph /  4.8 km/h 6.9 mph /  11.1 km/h 63 % 0.00 in /  0 mm
07:46 41.3 °F /  5.2 °C 29.3 °F /  -1.5 °C 30.11 in /  1019.5 hPa SW 1.5 mph /  2.4 km/h 3.5 mph /  5.6 km/h 62 % 0.00 in /  0 mm
07:51 42.0 °F /  5.6 °C 29.1 °F /  -1.6 °C 30.11 in /  1019.5 hPa West 3.0 mph /  4.8 km/h 6.9 mph /  11.1 km/h 60 % 0.00 in /  0 mm
07:56 42.6 °F /  5.9 °C 29.3 °F /  -1.5 °C 30.11 in /  1019.5 hPa West 3.2 mph /  5.1 km/h 4.6 mph /  7.4 km/h 59 % 0.00 in /  0 mm
08:02 43.7 °F /  6.5 °C 29.0 °F /  -1.7 °C 30.11 in /  1019.5 hPa West 3.4 mph /  5.5 km/h 4.6 mph /  7.4 km/h 56 % 0.00 in /  0 mm
08:07 44.6 °F /  7 °C 29.4 °F /  -1.4 °C 30.10 in /  1019.2 hPa SW 4.1 mph /  6.6 km/h 7.0 mph /  11.3 km/h 55 % 0.00 in /  0 mm
08:17 46.1 °F /  7.8 °C 29.9 °F /  -1.2 °C 30.10 in /  1019.2 hPa WSW 3.6 mph /  5.8 km/h 6.9 mph /  11.1 km/h 53 % 0.00 in /  0 mm
08:22 46.8 °F /  8.2 °C 30.1 °F /  -1.1 °C 30.11 in /  1019.5 hPa WNW 3.8 mph /  6.1 km/h 6.9 mph /  11.1 km/h 52 % 0.00 in /  0 mm
08:27 47.3 °F /  8.5 °C 30.1 °F /  -1.1 °C 30.11 in /  1019.5 hPa SW 4.0 mph /  6.4 km/h 5.0 mph /  8 km/h 51 % 0.00 in /  0 mm
08:32 47.9 °F /  8.8 °C 30.1 °F /  -1.1 °C 30.11 in /  1019.5 hPa SW 6.1 mph /  9.8 km/h 6.9 mph /  11.1 km/h 50 % 0.00 in /  0 mm
08:37 48.3 °F /  9.1 °C 30.0 °F /  -1.1 °C 30.11 in /  1019.5 hPa West 4.2 mph /  6.8 km/h 6.9 mph /  11.1 km/h 49 % 0.00 in /  0 mm
08:42 48.7 °F /  9.3 °C 30.4 °F /  -0.9 °C 30.11 in /  1019.5 hPa SW 5.6 mph /  9 km/h 11.0 mph /  17.7 km/h 49 % 0.00 in /  0 mm
08:47 49.0 °F /  9.4 °C 30.1 °F /  -1.1 °C 30.11 in /  1019.5 hPa West 4.0 mph /  6.4 km/h 5.8 mph /  9.3 km/h 48 % 0.00 in /  0 mm
08:52 49.4 °F /  9.7 °C 31.0 °F /  -0.6 °C 30.11 in /  1019.5 hPa WSW 5.0 mph /  8 km/h 10.0 mph /  16.1 km/h 49 % 0.00 in /  0 mm
08:57 49.9 °F /  9.9 °C 30.5 °F /  -0.8 °C 30.11 in /  1019.5 hPa WSW 4.0 mph /  6.4 km/h 5.0 mph /  8 km/h 47 % 0.00 in /  0 mm
09:02 50.3 °F /  10.2 °C 30.8 °F /  -0.7 °C 30.12 in /  1019.9 hPa West 3.9 mph /  6.3 km/h 9.2 mph /  14.8 km/h 47 % 0.00 in /  0 mm
09:07 50.9 °F /  10.5 °C 30.8 °F /  -0.7 °C 30.12 in /  1019.9 hPa West 4.2 mph /  6.8 km/h 8.1 mph /  13 km/h 46 % 0.00 in /  0 mm
09:12 51.2 °F /  10.7 °C 30.0 °F /  -1.1 °C 30.12 in /  1019.9 hPa WSW 4.4 mph /  7.1 km/h 7.0 mph /  11.3 km/h 44 % 0.00 in /  0 mm
09:17 51.4 °F /  10.8 °C 30.7 °F /  -0.7 °C 30.12 in /  1019.9 hPa West 3.9 mph /  6.3 km/h 9.2 mph /  14.8 km/h 45 % 0.00 in /  0 mm
09:22 51.9 °F /  11.1 °C 31.2 °F /  -0.4 °C 30.13 in /  1020.2 hPa West 4.4 mph /  7.1 km/h 8.1 mph /  13 km/h 45 % 0.00 in /  0 mm
09:27 52.4 °F /  11.3 °C 30.0 °F /  -1.1 °C 30.13 in /  1020.2 hPa NNW 4.4 mph /  7.1 km/h 9.2 mph /  14.8 km/h 42 % 0.00 in /  0 mm
09:32 52.7 °F /  11.5 °C 29.6 °F /  -1.3 °C 30.13 in /  1020.2 hPa West 5.5 mph /  8.9 km/h 11.5 mph /  18.5 km/h 41 % 0.00 in /  0 mm
09:38 53.1 °F /  11.7 °C 30.6 °F /  -0.8 °C 30.13 in /  1020.2 hPa WNW 2.1 mph /  3.4 km/h 3.5 mph /  5.6 km/h 42 % 0.00 in /  0 mm
09:43 53.5 °F /  11.9 °C 31.0 °F /  -0.6 °C 30.13 in /  1020.2 hPa WNW 3.0 mph /  4.8 km/h 5.8 mph /  9.3 km/h 42 % 0.00 in /  0 mm
09:48 53.9 °F /  12.2 °C 31.3 °F /  -0.4 °C 30.13 in /  1020.2 hPa WNW 6.0 mph /  9.7 km/h 9.2 mph /  14.8 km/h 42 % 0.00 in /  0 mm
09:53 54.0 °F /  12.2 °C 30.8 °F /  -0.7 °C 30.13 in /  1020.2 hPa West 4.3 mph /  6.9 km/h 8.1 mph /  13 km/h 41 % 0.00 in /  0 mm
09:58 54.2 °F /  12.3 °C 30.4 °F /  -0.9 °C 30.12 in /  1019.9 hPa WSW 5.3 mph /  8.5 km/h 8.1 mph /  13 km/h 40 % 0.00 in /  0 mm
10:03 54.6 °F /  12.6 °C 31.3 °F /  -0.4 °C 30.13 in /  1020.2 hPa West 4.4 mph /  7.1 km/h 5.8 mph /  9.3 km/h 41 % 0.00 in /  0 mm
10:08 55.0 °F /  12.8 °C 32.3 °F /  0.2 °C 30.13 in /  1020.2 hPa SW 6.3 mph /  10.1 km/h 10.0 mph /  16.1 km/h 42 % 0.00 in /  0 mm
10:13 55.2 °F /  12.9 °C 32.5 °F /  0.3 °C 30.14 in /  1020.5 hPa West 3.6 mph /  5.8 km/h 5.8 mph /  9.3 km/h 42 % 0.00 in /  0 mm
10:18 55.6 °F /  13.1 °C 32.8 °F /  0.4 °C 30.13 in /  1020.2 hPa SW 5.6 mph /  9 km/h 7.0 mph /  11.3 km/h 42 % 0.00 in /  0 mm
10:23 55.6 °F /  13.1 °C 32.2 °F /  0.1 °C 30.13 in /  1020.2 hPa SW 2.0 mph /  3.2 km/h 8.0 mph /  12.9 km/h 41 % 0.00 in /  0 mm
10:28 55.8 °F /  13.2 °C 31.2 °F /  -0.4 °C 30.13 in /  1020.2 hPa WSW 4.0 mph /  6.4 km/h 9.2 mph /  14.8 km/h 39 % 0.00 in /  0 mm
10:38 56.0 °F /  13.3 °C 31.4 °F /  -0.3 °C 30.13 in /  1020.2 hPa WSW 4.2 mph /  6.8 km/h 5.0 mph /  8 km/h 39 % 0.00 in /  0 mm
10:43 56.3 °F /  13.5 °C 31.6 °F /  -0.2 °C 30.13 in /  1020.2 hPa NW 4.3 mph /  6.9 km/h 8.1 mph /  13 km/h 39 % 0.00 in /  0 mm
10:48 56.7 °F /  13.7 °C 31.4 °F /  -0.3 °C 30.13 in /  1020.2 hPa WSW 6.2 mph /  10 km/h 8.1 mph /  13 km/h 38 % 0.00 in /  0 mm
10:53 57.1 °F /  13.9 °C 32.4 °F /  0.2 °C 30.13 in /  1020.2 hPa WSW 3.3 mph /  5.3 km/h 6.9 mph /  11.1 km/h 39 % 0.00 in /  0 mm
10:58 57.8 °F /  14.3 °C 32.3 °F /  0.2 °C 30.13 in /  1020.2 hPa WSW 3.2 mph /  5.1 km/h 7.0 mph /  11.3 km/h 38 % 0.00 in /  0 mm
11:03 58.3 °F /  14.6 °C 32.1 °F /  0.1 °C 30.13 in /  1020.2 hPa WSW 4.2 mph /  6.8 km/h 9.2 mph /  14.8 km/h 37 % 0.00 in /  0 mm
11:08 58.7 °F /  14.8 °C 32.5 °F /  0.3 °C 30.13 in /  1020.2 hPa SW 3.6 mph /  5.8 km/h 7.0 mph /  11.3 km/h 37 % 0.00 in /  0 mm
11:13 59.3 °F /  15.2 °C 32.3 °F /  0.2 °C 30.13 in /  1020.2 hPa WNW 3.9 mph /  6.3 km/h 5.8 mph /  9.3 km/h 36 % 0.00 in /  0 mm
11:23 60.2 °F /  15.7 °C 31.0 °F /  -0.6 °C 30.13 in /  1020.2 hPa West 2.3 mph /  3.7 km/h 3.5 mph /  5.6 km/h 33 % 0.00 in /  0 mm
11:28 60.5 °F /  15.8 °C 30.5 °F /  -0.8 °C 30.13 in /  1020.2 hPa WNW 4.2 mph /  6.8 km/h 6.0 mph /  9.7 km/h 32 % 0.00 in /  0 mm
11:34 60.3 °F /  15.7 °C 29.5 °F /  -1.4 °C 30.13 in /  1020.2 hPa WNW 4.3 mph /  6.9 km/h 8.1 mph /  13 km/h 31 % 0.00 in /  0 mm
11:39 60.3 °F /  15.7 °C 30.3 °F /  -0.9 °C 30.13 in /  1020.2 hPa WSW 3.8 mph /  6.1 km/h 5.8 mph /  9.3 km/h 32 % 0.00 in /  0 mm
11:44 60.7 °F /  15.9 °C 29.1 °F /  -1.6 °C 30.13 in /  1020.2 hPa West 2.9 mph /  4.7 km/h 6.9 mph /  11.1 km/h 30 % 0.00 in /  0 mm
11:49 61.1 °F /  16.2 °C 31.0 °F /  -0.6 °C 30.13 in /  1020.2 hPa West 4.5 mph /  7.2 km/h 6.0 mph /  9.7 km/h 32 % 0.00 in /  0 mm
11:59 62.0 °F /  16.7 °C 30.2 °F /  -1 °C 30.13 in /  1020.2 hPa SW 2.3 mph /  3.7 km/h 3.0 mph /  4.8 km/h 30 % 0.00 in /  0 mm
12:04 62.5 °F /  16.9 °C 33.0 °F /  0.6 °C 30.12 in /  1019.9 hPa NW 2.2 mph /  3.5 km/h 7.0 mph /  11.3 km/h 33 % 0.00 in /  0 mm
12:09 62.5 °F /  16.9 °C 28.0 °F /  -2.2 °C 30.12 in /  1019.9 hPa WNW 3.7 mph /  6 km/h 4.6 mph /  7.4 km/h 27 % 0.00 in /  0 mm
12:14 62.6 °F /  17 °C 28.1 °F /  -2.2 °C 30.12 in /  1019.9 hPa NW 3.0 mph /  4.8 km/h 5.0 mph /  8 km/h 27 % 0.00 in /  0 mm
12:19 62.9 °F /  17.2 °C 27.5 °F /  -2.5 °C 30.12 in /  1019.9 hPa West 2.7 mph /  4.3 km/h 4.6 mph /  7.4 km/h 26 % 0.00 in /  0 mm
12:24 63.1 °F /  17.3 °C 28.5 °F /  -1.9 °C 30.12 in /  1019.9 hPa WNW 2.7 mph /  4.3 km/h 6.0 mph /  9.7 km/h 27 % 0.00 in /  0 mm
12:34 63.4 °F /  17.4 °C 29.7 °F /  -1.3 °C 30.11 in /  1019.5 hPa WNW 3.5 mph /  5.6 km/h 6.0 mph /  9.7 km/h 28 % 0.00 in /  0 mm
12:39 63.7 °F /  17.6 °C 27.2 °F /  -2.7 °C 30.12 in /  1019.9 hPa WSW 1.5 mph /  2.4 km/h 6.9 mph /  11.1 km/h 25 % 0.00 in /  0 mm
12:44 64.3 °F /  17.9 °C 26.7 °F /  -2.9 °C 30.12 in /  1019.9 hPa West 5.8 mph /  9.3 km/h 8.1 mph /  13 km/h 24 % 0.00 in /  0 mm
12:49 64.7 °F /  18.2 °C 28.0 °F /  -2.2 °C 30.12 in /  1019.9 hPa West 3.7 mph /  6 km/h 6.9 mph /  11.1 km/h 25 % 0.00 in /  0 mm
12:54 65.1 °F /  18.4 °C 29.3 °F /  -1.5 °C 30.12 in /  1019.9 hPa NW 3.1 mph /  5 km/h 9.0 mph /  14.5 km/h 26 % 0.00 in /  0 mm
12:59 65.3 °F /  18.5 °C 26.5 °F /  -3.1 °C 30.12 in /  1019.9 hPa West 6.3 mph /  10.1 km/h 9.2 mph /  14.8 km/h 23 % 0.00 in /  0 mm
13:05 65.2 °F /  18.4 °C 25.4 °F /  -3.7 °C 30.12 in /  1019.9 hPa WSW 6.1 mph /  9.8 km/h 9.2 mph /  14.8 km/h 22 % 0.00 in /  0 mm
13:10 64.9 °F /  18.3 °C 28.2 °F /  -2.1 °C 30.12 in /  1019.9 hPa SW 2.9 mph /  4.7 km/h 6.0 mph /  9.7 km/h 25 % 0.00 in /  0 mm
13:13 65.1 °F /  18.4 °C 27.4 °F /  -2.6 °C 30.12 in /  1019.9 hPa West 4.3 mph /  6.9 km/h 5.8 mph /  9.3 km/h 24 % 0.00 in /  0 mm
13:18 65.4 °F /  18.6 °C 25.5 °F /  -3.6 °C 30.12 in /  1019.9 hPa West 6.5 mph /  10.5 km/h 10.4 mph /  16.7 km/h 22 % 0.00 in /  0 mm
13:23 65.3 °F /  18.5 °C 26.5 °F /  -3.1 °C 30.12 in /  1019.9 hPa NW 2.6 mph /  4.2 km/h 5.8 mph /  9.3 km/h 23 % 0.00 in /  0 mm
13:28 65.4 °F /  18.6 °C 25.5 °F /  -3.6 °C 30.12 in /  1019.9 hPa West 3.1 mph /  5 km/h 10.4 mph /  16.7 km/h 22 % 0.00 in /  0 mm
13:33 65.5 °F /  18.6 °C 26.7 °F /  -2.9 °C 30.12 in /  1019.9 hPa WSW 4.6 mph /  7.4 km/h 9.2 mph /  14.8 km/h 23 % 0.00 in /  0 mm
13:38 65.7 °F /  18.7 °C 29.8 °F /  -1.2 °C 30.11 in /  1019.5 hPa WNW 4.7 mph /  7.6 km/h 6.9 mph /  11.1 km/h 26 % 0.00 in /  0 mm
13:43 65.8 °F /  18.8 °C 29.9 °F /  -1.2 °C 30.11 in /  1019.5 hPa NW 3.9 mph /  6.3 km/h 10.4 mph /  16.7 km/h 26 % 0.00 in /  0 mm
13:48 66.0 °F /  18.9 °C 29.1 °F /  -1.6 °C 30.12 in /  1019.9 hPa SW 6.7 mph /  10.8 km/h 9.2 mph /  14.8 km/h 25 % 0.00 in /  0 mm
13:53 66.1 °F /  18.9 °C 28.2 °F /  -2.1 °C 30.12 in /  1019.9 hPa West 3.7 mph /  6 km/h 8.1 mph /  13 km/h 24 % 0.00 in /  0 mm
13:58 66.1 °F /  18.9 °C 29.2 °F /  -1.6 °C 30.12 in /  1019.9 hPa West 6.8 mph /  10.9 km/h 11.5 mph /  18.5 km/h 25 % 0.00 in /  0 mm
14:03 66.1 °F /  18.9 °C 31.1 °F /  -0.5 °C 30.11 in /  1019.5 hPa West 3.5 mph /  5.6 km/h 9.2 mph /  14.8 km/h 27 % 0.00 in /  0 mm
14:08 66.3 °F /  19.1 °C 29.4 °F /  -1.4 °C 30.11 in /  1019.5 hPa WSW 4.7 mph /  7.6 km/h 8.0 mph /  12.9 km/h 25 % 0.00 in /  0 mm
14:13 66.5 °F /  19.2 °C 31.5 °F /  -0.3 °C 30.11 in /  1019.5 hPa West 4.5 mph /  7.2 km/h 8.1 mph /  13 km/h 27 % 0.00 in /  0 mm
14:19 66.5 °F /  19.2 °C 30.5 °F /  -0.8 °C 30.11 in /  1019.5 hPa West 4.9 mph /  7.9 km/h 8.1 mph /  13 km/h 26 % 0.00 in /  0 mm
14:24 66.7 °F /  19.3 °C 31.6 °F /  -0.2 °C 30.10 in /  1019.2 hPa WSW 4.3 mph /  6.9 km/h 6.9 mph /  11.1 km/h 27 % 0.00 in /  0 mm
14:29 66.5 °F /  19.2 °C 31.5 °F /  -0.3 °C 30.10 in /  1019.2 hPa WSW 7.1 mph /  11.4 km/h 12.7 mph /  20.4 km/h 27 % 0.00 in /  0 mm
14:34 66.4 °F /  19.1 °C 32.3 °F /  0.2 °C 30.10 in /  1019.2 hPa SW 6.7 mph /  10.8 km/h 9.2 mph /  14.8 km/h 28 % 0.00 in /  0 mm
14:39 66.6 °F /  19.2 °C 31.5 °F /  -0.3 °C 30.10 in /  1019.2 hPa SW 3.5 mph /  5.6 km/h 9.0 mph /  14.5 km/h 27 % 0.00 in /  0 mm
14:44 66.7 °F /  19.3 °C 30.7 °F /  -0.7 °C 30.10 in /  1019.2 hPa West 4.1 mph /  6.6 km/h 9.2 mph /  14.8 km/h 26 % 0.00 in /  0 mm
14:54 67.2 °F /  19.6 °C 31.1 °F /  -0.5 °C 30.09 in /  1018.8 hPa WSW 5.3 mph /  8.5 km/h 8.0 mph /  12.9 km/h 26 % 0.00 in /  0 mm
14:59 67.2 °F /  19.6 °C 31.1 °F /  -0.5 °C 30.09 in /  1018.8 hPa SW 4.7 mph /  7.6 km/h 9.2 mph /  14.8 km/h 26 % 0.00 in /  0 mm
15:05 66.8 °F /  19.3 °C 30.8 °F /  -0.7 °C 30.09 in /  1018.8 hPa West 3.1 mph /  5 km/h 8.1 mph /  13 km/h 26 % 0.00 in /  0 mm
15:10 66.9 °F /  19.4 °C 31.8 °F /  -0.1 °C 30.09 in /  1018.8 hPa WSW 7.5 mph /  12.1 km/h 10.4 mph /  16.7 km/h 27 % 0.00 in /  0 mm
15:15 67.0 °F /  19.4 °C 33.7 °F /  0.9 °C 30.09 in /  1018.8 hPa WNW 2.2 mph /  3.5 km/h 5.0 mph /  8 km/h 29 % 0.00 in /  0 mm
15:20 67.3 °F /  19.6 °C 31.2 °F /  -0.4 °C 30.09 in /  1018.8 hPa WSW 6.2 mph /  10 km/h 10.4 mph /  16.7 km/h 26 % 0.00 in /  0 mm
15:25 67.3 °F /  19.6 °C 33.9 °F /  1.1 °C 30.09 in /  1018.8 hPa WSW 6.1 mph /  9.8 km/h 9.0 mph /  14.5 km/h 29 % 0.00 in /  0 mm
15:30 67.4 °F /  19.7 °C 33.1 °F /  0.6 °C 30.09 in /  1018.8 hPa West 2.7 mph /  4.3 km/h 6.0 mph /  9.7 km/h 28 % 0.00 in /  0 mm
15:35 67.5 °F /  19.7 °C 32.3 °F /  0.2 °C 30.09 in /  1018.8 hPa West 4.2 mph /  6.8 km/h 7.0 mph /  11.3 km/h 27 % 0.00 in /  0 mm
15:40 67.6 °F /  19.8 °C 32.4 °F /  0.2 °C 30.09 in /  1018.8 hPa NW 1.4 mph /  2.3 km/h 3.5 mph /  5.6 km/h 27 % 0.00 in /  0 mm
15:45 67.7 °F /  19.8 °C 32.5 °F /  0.3 °C 30.09 in /  1018.8 hPa West 5.5 mph /  8.9 km/h 9.2 mph /  14.8 km/h 27 % 0.00 in /  0 mm
15:50 67.7 °F /  19.8 °C 32.5 °F /  0.3 °C 30.09 in /  1018.8 hPa WNW 3.7 mph /  6 km/h 5.0 mph /  8 km/h 27 % 0.00 in /  0 mm
15:55 67.8 °F /  19.9 °C 33.5 °F /  0.8 °C 30.09 in /  1018.8 hPa WSW 3.3 mph /  5.3 km/h 4.6 mph /  7.4 km/h 28 % 0.00 in /  0 mm
16:00 68.0 °F /  20 °C 33.7 °F /  0.9 °C 30.09 in /  1018.8 hPa West 2.6 mph /  4.2 km/h 5.8 mph /  9.3 km/h 28 % 0.00 in /  0 mm
16:05 68.0 °F /  20 °C 34.5 °F /  1.4 °C 30.09 in /  1018.8 hPa SW 0.8 mph /  1.3 km/h 5.8 mph /  9.3 km/h 29 % 0.00 in /  0 mm
16:10 68.1 °F /  20.1 °C 35.5 °F /  1.9 °C 30.09 in /  1018.8 hPa SSW 8.7 mph /  14 km/h 10.0 mph /  16.1 km/h 30 % 0.00 in /  0 mm
16:11 68.0 °F /  20 °C 35.4 °F /  1.9 °C 30.09 in /  1018.8 hPa SSW 5.9 mph /  9.5 km/h 17.3 mph /  27.8 km/h 30 % 0.00 in /  0 mm
16:16 67.8 °F /  19.9 °C 35.2 °F /  1.8 °C 30.09 in /  1018.8 hPa SSW 6.4 mph /  10.3 km/h 10.4 mph /  16.7 km/h 30 % 0.00 in /  0 mm
16:21 67.6 °F /  19.8 °C 35.0 °F /  1.7 °C 30.08 in /  1018.5 hPa SW 5.6 mph /  9 km/h 12.0 mph /  19.3 km/h 30 % 0.00 in /  0 mm
16:26 67.2 °F /  19.6 °C 34.7 °F /  1.5 °C 30.09 in /  1018.8 hPa SW 7.0 mph /  11.3 km/h 12.0 mph /  19.3 km/h 30 % 0.00 in /  0 mm
16:31 66.7 °F /  19.3 °C 35.1 °F /  1.7 °C 30.09 in /  1018.8 hPa SSW 5.5 mph /  8.9 km/h 11.5 mph /  18.5 km/h 31 % 0.00 in /  0 mm
16:36 66.2 °F /  19 °C 34.7 °F /  1.5 °C 30.08 in /  1018.5 hPa South 5.5 mph /  8.9 km/h 8.1 mph /  13 km/h 31 % 0.00 in /  0 mm
16:41 65.9 °F /  18.8 °C 34.4 °F /  1.3 °C 30.08 in /  1018.5 hPa SSW 8.1 mph /  13 km/h 15.0 mph /  24.1 km/h 31 % 0.00 in /  0 mm
16:46 65.6 °F /  18.7 °C 34.1 °F /  1.2 °C 30.08 in /  1018.5 hPa WSW 7.0 mph /  11.3 km/h 10.4 mph /  16.7 km/h 31 % 0.00 in /  0 mm
16:51 65.1 °F /  18.4 °C 33.7 °F /  0.9 °C 30.08 in /  1018.5 hPa SSW 5.0 mph /  8 km/h 8.1 mph /  13 km/h 31 % 0.00 in /  0 mm
16:56 64.8 °F /  18.2 °C 34.2 °F /  1.2 °C 30.08 in /  1018.5 hPa South 4.9 mph /  7.9 km/h 8.1 mph /  13 km/h 32 % 0.00 in /  0 mm
17:01 64.4 °F /  18 °C 33.9 °F /  1.1 °C 30.08 in /  1018.5 hPa South 6.1 mph /  9.8 km/h 11.5 mph /  18.5 km/h 32 % 0.00 in /  0 mm
17:06 63.9 °F /  17.7 °C 34.2 °F /  1.2 °C 30.09 in /  1018.8 hPa South 8.0 mph /  12.9 km/h 12.7 mph /  20.4 km/h 33 % 0.00 in /  0 mm
17:11 63.2 °F /  17.3 °C 33.6 °F /  0.9 °C 30.08 in /  1018.5 hPa SSW 6.6 mph /  10.6 km/h 11.5 mph /  18.5 km/h 33 % 0.00 in /  0 mm
17:16 62.6 °F /  17 °C 33.1 °F /  0.6 °C 30.09 in /  1018.8 hPa South 7.0 mph /  11.3 km/h 8.1 mph /  13 km/h 33 % 0.00 in /  0 mm
17:21 62.1 °F /  16.7 °C 33.4 °F /  0.8 °C 30.09 in /  1018.8 hPa SSW 8.2 mph /  13.2 km/h 12.7 mph /  20.4 km/h 34 % 0.00 in /  0 mm
17:26 61.4 °F /  16.3 °C 32.8 °F /  0.4 °C 30.09 in /  1018.8 hPa SSW 5.9 mph /  9.5 km/h 9.0 mph /  14.5 km/h 34 % 0.00 in /  0 mm
17:31 61.1 °F /  16.2 °C 32.5 °F /  0.3 °C 30.09 in /  1018.8 hPa SSE 7.3 mph /  11.7 km/h 12.0 mph /  19.3 km/h 34 % 0.00 in /  0 mm
17:36 60.6 °F /  15.9 °C 31.3 °F /  -0.4 °C 30.09 in /  1018.8 hPa South 3.5 mph /  5.6 km/h 9.2 mph /  14.8 km/h 33 % 0.00 in /  0 mm
17:41 60.3 °F /  15.7 °C 32.5 °F /  0.3 °C 30.09 in /  1018.8 hPa SSE 5.9 mph /  9.5 km/h 11.5 mph /  18.5 km/h 35 % 0.00 in /  0 mm
17:46 60.0 °F /  15.6 °C 31.5 °F /  -0.3 °C 30.09 in /  1018.8 hPa South 4.1 mph /  6.6 km/h 12.7 mph /  20.4 km/h 34 % 0.00 in /  0 mm
17:51 59.7 °F /  15.4 °C 32.0 °F /  0 °C 30.09 in /  1018.8 hPa SSW 6.9 mph /  11.1 km/h 10.4 mph /  16.7 km/h 35 % 0.00 in /  0 mm
18:01 59.0 °F /  15 °C 32.1 °F /  0.1 °C 30.09 in /  1018.8 hPa SSW 4.7 mph /  7.6 km/h 11.5 mph /  18.5 km/h 36 % 0.00 in /  0 mm
18:06 58.8 °F /  14.9 °C 31.9 °F /  -0.1 °C 30.09 in /  1018.8 hPa SSE 8.2 mph /  13.2 km/h 11.5 mph /  18.5 km/h 36 % 0.00 in /  0 mm
18:11 58.6 °F /  14.8 °C 31.7 °F /  -0.2 °C 30.09 in /  1018.8 hPa SE 4.3 mph /  6.9 km/h 11.5 mph /  18.5 km/h 36 % 0.00 in /  0 mm
18:16 58.4 °F /  14.7 °C 32.2 °F /  0.1 °C 30.09 in /  1018.8 hPa SSW 7.6 mph /  12.2 km/h 11.5 mph /  18.5 km/h 37 % 0.00 in /  0 mm
18:21 58.0 °F /  14.4 °C 31.2 °F /  -0.4 °C 30.09 in /  1018.8 hPa South 7.2 mph /  11.6 km/h 11.5 mph /  18.5 km/h 36 % 0.00 in /  0 mm
18:26 57.8 °F /  14.3 °C 31.7 °F /  -0.2 °C 30.09 in /  1018.8 hPa SSE 6.3 mph /  10.1 km/h 10.4 mph /  16.7 km/h 37 % 0.00 in /  0 mm
18:31 57.5 °F /  14.2 °C 31.4 °F /  -0.3 °C 30.09 in /  1018.8 hPa South 7.0 mph /  11.3 km/h 10.4 mph /  16.7 km/h 37 % 0.00 in /  0 mm
18:36 57.2 °F /  14 °C 31.8 °F /  -0.1 °C 30.09 in /  1018.8 hPa South 8.2 mph /  13.2 km/h 18.4 mph /  29.6 km/h 38 % 0.00 in /  0 mm
18:41 56.8 °F /  13.8 °C 31.4 °F /  -0.3 °C 30.09 in /  1018.8 hPa SSW 5.1 mph /  8.2 km/h 11.5 mph /  18.5 km/h 38 % 0.00 in /  0 mm
18:46 56.4 °F /  13.6 °C 31.7 °F /  -0.2 °C 30.08 in /  1018.5 hPa South 7.6 mph /  12.2 km/h 15.0 mph /  24.1 km/h 39 % 0.00 in /  0 mm
18:51 56.0 °F /  13.3 °C 32.0 °F /  0 °C 30.08 in /  1018.5 hPa South 5.7 mph /  9.2 km/h 12.7 mph /  20.4 km/h 40 % 0.00 in /  0 mm
18:56 55.6 °F /  13.1 °C 31.6 °F /  -0.2 °C 30.08 in /  1018.5 hPa SSW 4.5 mph /  7.2 km/h 13.8 mph /  22.2 km/h 40 % 0.00 in /  0 mm
19:02 55.3 °F /  12.9 °C 32.0 °F /  0 °C 30.09 in /  1018.8 hPa South 5.5 mph /  8.9 km/h 9.2 mph /  14.8 km/h 41 % 0.00 in /  0 mm
19:07 54.9 °F /  12.7 °C 31.6 °F /  -0.2 °C 30.08 in /  1018.5 hPa SE 7.2 mph /  11.6 km/h 11.5 mph /  18.5 km/h 41 % 0.00 in /  0 mm
19:12 54.4 °F /  12.4 °C 31.2 °F /  -0.4 °C 30.08 in /  1018.5 hPa SSW 6.6 mph /  10.6 km/h 11.5 mph /  18.5 km/h 41 % 0.00 in /  0 mm
19:17 53.9 °F /  12.2 °C 31.3 °F /  -0.4 °C 30.08 in /  1018.5 hPa South 7.1 mph /  11.4 km/h 12.7 mph /  20.4 km/h 42 % 0.00 in /  0 mm
19:22 53.4 °F /  11.9 °C 30.9 °F /  -0.6 °C 30.08 in /  1018.5 hPa SSW 6.9 mph /  11.1 km/h 12.7 mph /  20.4 km/h 42 % 0.00 in /  0 mm
19:32 52.6 °F /  11.4 °C 31.3 °F /  -0.4 °C 30.09 in /  1018.8 hPa SSW 6.1 mph /  9.8 km/h 10.4 mph /  16.7 km/h 44 % 0.00 in /  0 mm
19:37 52.4 °F /  11.3 °C 31.1 °F /  -0.5 °C 30.09 in /  1018.8 hPa South 5.6 mph /  9 km/h 11.5 mph /  18.5 km/h 44 % 0.00 in /  0 mm
19:42 52.0 °F /  11.1 °C 31.3 °F /  -0.4 °C 30.09 in /  1018.8 hPa South 7.7 mph /  12.4 km/h 11.5 mph /  18.5 km/h 45 % 0.00 in /  0 mm
19:47 51.8 °F /  11 °C 31.1 °F /  -0.5 °C 30.09 in /  1018.8 hPa South 5.8 mph /  9.3 km/h 8.1 mph /  13 km/h 45 % 0.00 in /  0 mm
19:52 51.5 °F /  10.8 °C 31.9 °F /  -0.1 °C 30.09 in /  1018.8 hPa SSW 6.2 mph /  10 km/h 11.5 mph /  18.5 km/h 47 % 0.00 in /  0 mm
19:57 51.3 °F /  10.7 °C 31.7 °F /  -0.2 °C 30.09 in /  1018.8 hPa South 7.4 mph /  11.9 km/h 15.0 mph /  24.1 km/h 47 % 0.00 in /  0 mm
20:02 51.1 °F /  10.6 °C 32.1 °F /  0.1 °C 30.09 in /  1018.8 hPa SSW 6.1 mph /  9.8 km/h 9.2 mph /  14.8 km/h 48 % 0.00 in /  0 mm
20:07 51.0 °F /  10.6 °C 32.0 °F /  0 °C 30.10 in /  1019.2 hPa South 6.0 mph /  9.7 km/h 12.0 mph /  19.3 km/h 48 % 0.00 in /  0 mm
20:12 50.9 °F /  10.5 °C 32.4 °F /  0.2 °C 30.10 in /  1019.2 hPa South 7.0 mph /  11.3 km/h 12.0 mph /  19.3 km/h 49 % 0.00 in /  0 mm
20:17 50.8 °F /  10.4 °C 32.8 °F /  0.4 °C 30.10 in /  1019.2 hPa South 7.0 mph /  11.3 km/h 10.0 mph /  16.1 km/h 50 % 0.00 in /  0 mm
20:22 50.6 °F /  10.3 °C 33.1 °F /  0.6 °C 30.10 in /  1019.2 hPa SSW 7.6 mph /  12.2 km/h 10.4 mph /  16.7 km/h 51 % 0.00 in /  0 mm
20:27 50.5 °F /  10.3 °C 33.5 °F /  0.8 °C 30.10 in /  1019.2 hPa South 5.4 mph /  8.7 km/h 6.9 mph /  11.1 km/h 52 % 0.00 in /  0 mm
20:32 50.5 °F /  10.3 °C 34.0 °F /  1.1 °C 30.11 in /  1019.5 hPa South 8.0 mph /  12.9 km/h 13.0 mph /  20.9 km/h 53 % 0.00 in /  0 mm
20:37 50.4 °F /  10.2 °C 33.9 °F /  1.1 °C 30.11 in /  1019.5 hPa South 7.0 mph /  11.3 km/h 12.0 mph /  19.3 km/h 53 % 0.00 in /  0 mm
20:42 50.3 °F /  10.2 °C 33.8 °F /  1 °C 30.11 in /  1019.5 hPa South 5.0 mph /  8 km/h 12.0 mph /  19.3 km/h 53 % 0.00 in /  0 mm
20:47 50.3 °F /  10.2 °C 34.3 °F /  1.3 °C 30.12 in /  1019.9 hPa SSW 7.0 mph /  11.3 km/h 14.0 mph /  22.5 km/h 54 % 0.00 in /  0 mm
20:52 50.2 °F /  10.1 °C 34.7 °F /  1.5 °C 30.12 in /  1019.9 hPa South 7.0 mph /  11.3 km/h 12.0 mph /  19.3 km/h 55 % 0.00 in /  0 mm
20:57 50.2 °F /  10.1 °C 34.6 °F /  1.4 °C 30.12 in /  1019.9 hPa South 5.8 mph /  9.3 km/h 9.2 mph /  14.8 km/h 55 % 0.00 in /  0 mm
21:02 50.2 °F /  10.1 °C 35.1 °F /  1.7 °C 30.12 in /  1019.9 hPa SSW 6.6 mph /  10.6 km/h 10.4 mph /  16.7 km/h 56 % 0.00 in /  0 mm
21:07 50.1 °F /  10.1 °C 35.0 °F /  1.7 °C 30.12 in /  1019.9 hPa SSW 5.8 mph /  9.3 km/h 12.7 mph /  20.4 km/h 56 % 0.00 in /  0 mm
21:12 50.1 °F /  10.1 °C 35.0 °F /  1.7 °C 30.12 in /  1019.9 hPa South 3.8 mph /  6.1 km/h 8.1 mph /  13 km/h 56 % 0.00 in /  0 mm
21:17 50.1 °F /  10.1 °C 35.4 °F /  1.9 °C 30.12 in /  1019.9 hPa SSW 4.9 mph /  7.9 km/h 10.4 mph /  16.7 km/h 57 % 0.00 in /  0 mm
21:22 50.1 °F /  10.1 °C 35.4 °F /  1.9 °C 30.12 in /  1019.9 hPa South 5.0 mph /  8 km/h 12.0 mph /  19.3 km/h 57 % 0.00 in /  0 mm
21:27 50.0 °F /  10 °C 35.8 °F /  2.1 °C 30.12 in /  1019.9 hPa South 5.0 mph /  8 km/h 8.0 mph /  12.9 km/h 58 % 0.00 in /  0 mm
21:32 50.0 °F /  10 °C 35.8 °F /  2.1 °C 30.13 in /  1020.2 hPa South 2.0 mph /  3.2 km/h 7.0 mph /  11.3 km/h 58 % 0.00 in /  0 mm
21:37 49.9 °F /  9.9 °C 36.1 °F /  2.3 °C 30.13 in /  1020.2 hPa SSW 2.0 mph /  3.2 km/h 7.0 mph /  11.3 km/h 59 % 0.00 in /  0 mm
21:42 49.9 °F /  9.9 °C 35.7 °F /  2.1 °C 30.13 in /  1020.2 hPa SW 3.0 mph /  4.8 km/h 6.0 mph /  9.7 km/h 58 % 0.00 in /  0 mm
21:47 49.9 °F /  9.9 °C 36.1 °F /  2.3 °C 30.13 in /  1020.2 hPa WSW 3.0 mph /  4.8 km/h 7.0 mph /  11.3 km/h 59 % 0.00 in /  0 mm
21:52 49.9 °F /  9.9 °C 35.7 °F /  2.1 °C 30.14 in /  1020.5 hPa Calm   3.0 mph /  4.8 km/h 58 % 0.00 in /  0 mm
22:02 49.9 °F /  9.9 °C 36.1 °F /  2.3 °C 30.14 in /  1020.5 hPa Calm   1.2 mph /  1.9 km/h 59 % 0.00 in /  0 mm
22:07 49.8 °F /  9.9 °C 36.0 °F /  2.2 °C 30.14 in /  1020.5 hPa WSW 0.3 mph /  0.5 km/h 1.2 mph /  1.9 km/h 59 % 0.00 in /  0 mm
22:17 49.7 °F /  9.8 °C 35.9 °F /  2.2 °C 30.14 in /  1020.5 hPa WSW 1.6 mph /  2.6 km/h 2.0 mph /  3.2 km/h 59 % 0.00 in /  0 mm
22:22 49.6 °F /  9.8 °C 36.3 °F /  2.4 °C 30.14 in /  1020.5 hPa SSW 0.5 mph /  0.8 km/h 1.2 mph /  1.9 km/h 60 % 0.00 in /  0 mm
22:27 49.5 °F /  9.7 °C 36.2 °F /  2.3 °C 30.14 in /  1020.5 hPa SSW 2.3 mph /  3.7 km/h 4.0 mph /  6.4 km/h 60 % 0.00 in /  0 mm
22:32 49.4 °F /  9.7 °C 36.5 °F /  2.5 °C 30.14 in /  1020.5 hPa SSW 0.8 mph /  1.3 km/h 3.5 mph /  5.6 km/h 61 % 0.00 in /  0 mm
22:37 49.3 °F /  9.6 °C 36.4 °F /  2.4 °C 30.14 in /  1020.5 hPa SW 1.1 mph /  1.8 km/h 3.5 mph /  5.6 km/h 61 % 0.00 in /  0 mm
22:42 49.2 °F /  9.6 °C 36.7 °F /  2.6 °C 30.14 in /  1020.5 hPa WSW 1.3 mph /  2.1 km/h 8.0 mph /  12.9 km/h 62 % 0.00 in /  0 mm
22:47 49.2 °F /  9.6 °C 36.7 °F /  2.6 °C 30.14 in /  1020.5 hPa WSW 1.7 mph /  2.7 km/h 4.0 mph /  6.4 km/h 62 % 0.00 in /  0 mm
22:52 49.3 °F /  9.6 °C 36.8 °F /  2.7 °C 30.14 in /  1020.5 hPa WSW 0.8 mph /  1.3 km/h 3.5 mph /  5.6 km/h 62 % 0.00 in /  0 mm
22:57 49.3 °F /  9.6 °C 36.8 °F /  2.7 °C 30.14 in /  1020.5 hPa WSW 0.9 mph /  1.4 km/h 3.5 mph /  5.6 km/h 62 % 0.00 in /  0 mm
23:02 49.4 °F /  9.7 °C 36.9 °F /  2.7 °C 30.14 in /  1020.5 hPa SW 2.4 mph /  3.9 km/h 5.0 mph /  8 km/h 62 % 0.00 in /  0 mm
23:07 49.5 °F /  9.7 °C 37.0 °F /  2.8 °C 30.14 in /  1020.5 hPa WSW 1.7 mph /  2.7 km/h 3.5 mph /  5.6 km/h 62 % 0.00 in /  0 mm
23:13 49.5 °F /  9.7 °C 36.6 °F /  2.6 °C 30.14 in /  1020.5 hPa West 2.3 mph /  3.7 km/h 3.5 mph /  5.6 km/h 61 % 0.00 in /  0 mm
23:18 49.5 °F /  9.7 °C 37.0 °F /  2.8 °C 30.14 in /  1020.5 hPa WSW 0.5 mph /  0.8 km/h 2.3 mph /  3.7 km/h 62 % 0.00 in /  0 mm
23:23 49.5 °F /  9.7 °C 37.0 °F /  2.8 °C 30.14 in /  1020.5 hPa WSW 2.7 mph /  4.3 km/h 3.5 mph /  5.6 km/h 62 % 0.00 in /  0 mm
23:28 49.5 °F /  9.7 °C 36.6 °F /  2.6 °C 30.14 in /  1020.5 hPa SW 2.5 mph /  4 km/h 5.8 mph /  9.3 km/h 61 % 0.00 in /  0 mm
23:33 49.6 °F /  9.8 °C 36.7 °F /  2.6 °C 30.14 in /  1020.5 hPa SW 2.6 mph /  4.2 km/h 4.0 mph /  6.4 km/h 61 % 0.00 in /  0 mm
23:38 49.6 °F /  9.8 °C 36.3 °F /  2.4 °C 30.13 in /  1020.2 hPa WSW 5.1 mph /  8.2 km/h 8.1 mph /  13 km/h 60 % 0.00 in /  0 mm
23:43 49.8 °F /  9.9 °C 36.0 °F /  2.2 °C 30.14 in /  1020.5 hPa SSW 3.8 mph /  6.1 km/h 9.2 mph /  14.8 km/h 59 % 0.00 in /  0 mm
23:48 50.0 °F /  10 °C 35.8 °F /  2.1 °C 30.13 in /  1020.2 hPa WSW 4.7 mph /  7.6 km/h 7.0 mph /  11.3 km/h 58 % 0.00 in /  0 mm
23:53 50.1 °F /  10.1 °C 35.9 °F /  2.2 °C 30.13 in /  1020.2 hPa SW 5.6 mph /  9 km/h 11.5 mph /  18.5 km/h 58 % 0.00 in /  0 mm
23:58 50.3 °F /  10.2 °C 35.6 °F /  2 °C 30.14 in /  1020.5 hPa SW 4.5 mph /  7.2 km/h 7.0 mph /  11.3 km/h 57 % 0.00 in /  0 mm
Crab Meadow Weather
Compliments of Weather Underground - 3.25 mb

Script developed by  Jim McMurry - jmcmurry@mwt.net Adapted for the template by  Wim van der Kuil - Leuven-Template.eu

Lightning: Lightning can strike the same place twice and sometimes many times. The Empire State Building in New York City is struck an average of 23 times a year. During one thunderstorm it was struck 8 times in 24 minutes.